createdAt,value
2022-09-18T00:01:59.000Z,3.67
2022-09-18T00:07:01.699Z,4.80
2022-09-18T00:12:04.489Z,4.63
2022-09-18T00:17:09.269Z,2.60
2022-09-18T00:22:12.014Z,4.85
2022-09-18T00:27:14.629Z,6.07
2022-09-18T00:32:18.570Z,2.85
2022-09-18T00:37:21.394Z,3.53
2022-09-18T00:42:24.082Z,1.27
2022-09-18T00:47:33.697Z,4.38
2022-09-18T00:52:43.377Z,6.13
2022-09-18T00:57:49.126Z,6.70
2022-09-18T01:02:53.902Z,4.60
2022-09-18T01:08:04.242Z,5.00
2022-09-18T01:13:12.407Z,5.32
2022-09-18T01:18:22.624Z,3.25
2022-09-18T01:23:59.879Z,4.28
2022-09-18T01:29:07.596Z,6.32
2022-09-18T01:34:14.816Z,8.18
2022-09-18T01:39:21.272Z,4.55
2022-09-18T01:44:29.248Z,3.10
2022-09-18T01:49:39.993Z,5.63
2022-09-18T01:54:44.549Z,4.68
2022-09-18T01:59:51.767Z,1.98
2022-09-18T02:04:59.700Z,4.15
2022-09-18T02:10:02.731Z,5.40
2022-09-18T02:15:11.645Z,3.10
2022-09-18T02:20:24.110Z,3.20
2022-09-18T02:25:31.291Z,3.22
2022-09-18T02:30:35.640Z,2.15
2022-09-18T02:35:41.719Z,3.67
2022-09-18T02:40:51.180Z,3.85
2022-09-18T02:46:01.071Z,5.65
2022-09-18T02:51:09.599Z,3.97
2022-09-18T02:56:15.965Z,3.75
2022-09-18T03:01:23.325Z,6.20
2022-09-18T03:06:26.368Z,7.95
2022-09-18T03:11:29.082Z,7.38
2022-09-18T03:16:33.094Z,5.00
2022-09-18T03:21:35.797Z,4.38
2022-09-18T03:26:41.202Z,2.88
2022-09-18T03:31:45.418Z,4.95
2022-09-18T03:36:49.254Z,4.38
2022-09-18T03:41:53.267Z,5.03
2022-09-18T03:46:57.973Z,3.13
2022-09-18T03:52:00.760Z,3.30
2022-09-18T03:57:08.158Z,3.15
2022-09-18T04:02:21.814Z,4.63
2022-09-18T04:07:43.074Z,3.40
2022-09-18T04:13:04.607Z,3.03
2022-09-18T04:18:12.100Z,7.38
2022-09-18T04:23:15.268Z,7.45
2022-09-18T04:28:17.927Z,7.30
2022-09-18T04:33:27.555Z,7.38
2022-09-18T04:38:30.184Z,1.83
2022-09-18T04:43:33.250Z,4.63
2022-09-18T04:48:37.523Z,3.17
2022-09-18T04:53:41.452Z,6.75
2022-09-18T04:58:45.397Z,6.32
2022-09-18T05:03:49.791Z,4.20
2022-09-18T05:09:01.717Z,6.95
2022-09-18T05:14:04.590Z,3.95
2022-09-18T05:19:10.657Z,3.40
2022-09-18T05:24:14.037Z,4.10
2022-09-18T05:29:17.691Z,3.85
2022-09-18T05:34:21.879Z,4.13
2022-09-18T05:39:25.422Z,5.90
2022-09-18T05:44:33.077Z,3.45
2022-09-18T05:49:37.388Z,2.22
2022-09-18T05:54:42.485Z,4.88
2022-09-18T05:59:45.988Z,4.00
2022-09-18T06:04:50.014Z,3.83
2022-09-18T06:09:53.290Z,4.78
2022-09-18T06:14:55.990Z,2.42
2022-09-18T06:20:02.438Z,3.40
2022-09-18T06:25:06.596Z,2.47
2022-09-18T06:30:11.442Z,5.60
2022-09-18T06:35:15.754Z,2.65
2022-09-18T06:40:18.932Z,3.92
2022-09-18T06:45:40.577Z,4.95
2022-09-18T06:50:44.742Z,3.88
2022-09-18T06:55:48.899Z,5.20
2022-09-18T07:00:51.636Z,2.50
2022-09-18T07:06:03.283Z,2.42
2022-09-18T07:11:19.757Z,3.55
2022-09-18T07:16:23.065Z,4.00
2022-09-18T07:21:27.487Z,2.50
2022-09-18T07:26:30.110Z,3.13
2022-09-18T07:31:32.897Z,2.33
2022-09-18T07:36:40.164Z,4.03
2022-09-18T07:41:43.615Z,3.97
2022-09-18T07:46:46.981Z,6.88
2022-09-18T07:51:51.237Z,1.90
2022-09-18T07:56:54.544Z,3.72
2022-09-18T08:02:00.420Z,1.20
2022-09-18T08:07:07.987Z,2.97
2022-09-18T08:12:36.642Z,3.63
2022-09-18T08:18:02.575Z,4.32
2022-09-18T08:23:20.207Z,2.15
2022-09-18T08:28:23.122Z,2.40
2022-09-18T08:33:31.197Z,3.35
2022-09-18T08:38:36.801Z,3.58
2022-09-18T08:44:02.794Z,4.22
2022-09-18T08:49:15.964Z,3.88
2022-09-18T08:54:27.515Z,3.92
2022-09-18T09:00:02.541Z,2.08
2022-09-18T09:05:09.665Z,4.18
2022-09-18T09:10:32.409Z,4.70
2022-09-18T09:15:38.962Z,4.20
2022-09-18T09:20:51.440Z,4.03
2022-09-18T09:26:03.155Z,4.47
2022-09-18T09:31:26.055Z,4.00
2022-09-18T09:36:54.810Z,4.82
2022-09-18T09:42:00.134Z,1.60
2022-09-18T09:47:21.221Z,3.35
2022-09-18T09:52:25.753Z,2.10
2022-09-18T09:57:41.012Z,6.20
2022-09-18T10:02:57.324Z,1.88
2022-09-18T10:08:07.146Z,3.25
2022-09-18T10:13:16.426Z,1.95
2022-09-18T10:18:22.813Z,2.70
2022-09-18T10:23:33.956Z,1.50
2022-09-18T10:28:39.538Z,3.22
2022-09-18T10:33:43.994Z,1.83
2022-09-18T10:38:54.162Z,2.78
2022-09-18T10:44:27.154Z,2.88
2022-09-18T10:49:41.759Z,1.95
2022-09-18T10:54:58.754Z,2.80
2022-09-18T11:00:05.776Z,1.90
2022-09-18T11:05:16.922Z,3.95
2022-09-18T11:10:22.660Z,2.75
2022-09-18T11:15:29.911Z,3.13
2022-09-18T11:20:34.844Z,1.58
2022-09-18T11:25:45.735Z,1.42
2022-09-18T11:31:01.016Z,1.58
2022-09-18T11:36:05.864Z,1.63
2022-09-18T11:41:11.761Z,2.72
2022-09-18T11:46:26.462Z,1.52
2022-09-18T11:51:46.627Z,1.52
2022-09-18T11:56:51.777Z,3.63
2022-09-18T12:02:02.657Z,2.92
2022-09-18T12:07:12.994Z,3.03
2022-09-18T12:12:19.846Z,1.83
2022-09-18T12:17:29.086Z,1.52
2022-09-18T12:22:41.153Z,1.42
2022-09-18T12:27:52.782Z,0.60
2022-09-18T12:33:17.928Z,1.42
2022-09-18T12:38:35.040Z,3.03
2022-09-18T12:44:22.159Z,1.70
2022-09-18T12:49:46.911Z,0.80
2022-09-18T12:55:01.706Z,1.70
2022-09-18T13:00:08.555Z,1.13
2022-09-18T13:05:17.781Z,1.38
2022-09-18T13:10:23.278Z,1.70
2022-09-18T13:15:28.544Z,0.63
2022-09-18T13:20:36.208Z,1.27
2022-09-18T13:25:40.563Z,0.32
2022-09-18T13:30:43.404Z,2.00
2022-09-18T13:35:53.851Z,1.02
2022-09-18T13:41:00.482Z,1.08
2022-09-18T13:46:07.066Z,1.73
2022-09-18T13:51:20.155Z,0.77
2022-09-18T13:56:57.652Z,0.50
2022-09-18T14:02:02.658Z,0.57
2022-09-18T14:07:45.916Z,2.05
2022-09-18T14:13:24.027Z,1.05
2022-09-18T14:18:29.132Z,3.42
2022-09-18T14:24:11.703Z,1.23
2022-09-18T14:29:18.669Z,0.50
2022-09-18T14:34:24.391Z,0.63
2022-09-18T14:39:29.414Z,3.38
2022-09-18T14:44:34.511Z,2.20
2022-09-18T14:49:42.092Z,0.85
2022-09-18T14:54:47.563Z,0.68
2022-09-18T14:59:53.442Z,0.40
2022-09-18T15:04:56.387Z,0.47
2022-09-18T15:10:02.654Z,1.38
2022-09-18T15:20:36.736Z,0.60
2022-09-18T15:25:40.602Z,2.05
2022-09-18T15:30:43.671Z,0.63
2022-09-18T15:35:52.270Z,0.98
2022-09-18T15:40:55.660Z,0.50
2022-09-18T15:46:03.202Z,0.88
2022-09-18T15:51:13.295Z,0.28
2022-09-18T15:56:21.025Z,0.30
2022-09-18T16:01:29.535Z,0.65
2022-09-18T16:06:42.657Z,0.35
2022-09-18T16:11:46.933Z,0.20
2022-09-18T16:16:49.578Z,0.45
2022-09-18T16:21:53.664Z,0.40
2022-09-18T16:27:05.147Z,0.85
2022-09-18T16:32:10.192Z,0.95
2022-09-18T16:37:17.015Z,1.20
2022-09-18T16:42:20.133Z,0.60
2022-09-18T16:47:22.760Z,1.08
2022-09-18T16:52:26.931Z,1.60
2022-09-18T16:57:30.643Z,0.40
2022-09-18T17:02:33.870Z,0.60
2022-09-18T17:07:37.987Z,0.20
2022-09-18T17:12:41.481Z,0.30
2022-09-18T17:17:45.589Z,1.25
2022-09-18T17:22:50.612Z,0.85
2022-09-18T17:27:53.184Z,0.93
2022-09-18T17:32:55.805Z,0.77
2022-09-18T17:38:00.813Z,1.33
2022-09-18T17:43:03.907Z,0.65
2022-09-18T17:48:06.609Z,0.25
2022-09-18T17:53:11.090Z,0.32
2022-09-18T17:58:13.968Z,0.47
2022-09-18T18:03:17.284Z,0.32
2022-09-18T18:08:21.317Z,0.30
2022-09-18T18:13:24.125Z,1.23
2022-09-18T18:18:27.286Z,0.40
2022-09-18T18:23:31.399Z,0.82
2022-09-18T18:28:35.100Z,1.00
2022-09-18T18:33:38.226Z,0.85
2022-09-18T18:38:42.986Z,0.93
2022-09-18T18:43:46.005Z,0.80
2022-09-18T18:48:49.303Z,1.13
2022-09-18T18:53:55.206Z,0.60
2022-09-18T18:58:58.762Z,0.85
2022-09-18T19:04:03.401Z,0.75
2022-09-18T19:09:09.288Z,1.42
2022-09-18T19:14:14.145Z,0.20
2022-09-18T19:19:18.590Z,0.68
2022-09-18T19:24:22.889Z,0.50
2022-09-18T19:29:25.630Z,0.70
2022-09-18T19:34:28.306Z,1.02
2022-09-18T19:39:32.372Z,0.30
2022-09-18T19:44:37.613Z,1.27
2022-09-18T19:49:40.492Z,0.50
2022-09-18T19:54:44.560Z,0.43
2022-09-18T19:59:47.703Z,0.30
2022-09-18T20:04:50.364Z,1.02
2022-09-18T20:09:54.479Z,0.35
2022-09-18T20:14:57.157Z,0.45
2022-09-18T20:20:00.376Z,0.30
2022-09-18T20:25:05.215Z,0.68
2022-09-18T20:30:10.713Z,0.22
2022-09-18T20:35:13.446Z,2.78
2022-09-18T20:40:17.750Z,0.52
2022-09-18T20:45:20.566Z,0.40
2022-09-18T20:50:27.676Z,0.60
2022-09-18T20:55:31.668Z,0.98
2022-09-18T21:00:34.464Z,0.60
2022-09-18T21:05:37.658Z,0.85
2022-09-18T21:10:46.708Z,1.23
2022-09-18T21:15:49.407Z,2.15
2022-09-18T21:21:02.356Z,0.30
2022-09-18T21:26:17.397Z,1.20
2022-09-18T21:31:20.643Z,0.85
2022-09-18T21:36:24.521Z,0.55
2022-09-18T21:41:28.509Z,0.95
2022-09-18T21:46:31.121Z,0.45
2022-09-18T21:51:34.324Z,0.98
2022-09-18T21:56:38.273Z,0.70
2022-09-18T22:01:42.687Z,0.90
2022-09-18T22:06:46.573Z,0.47
2022-09-18T22:11:51.370Z,0.90
2022-09-18T22:16:54.141Z,2.42
2022-09-18T22:21:57.252Z,1.05
2022-09-18T22:27:02.484Z,2.15
2022-09-18T22:32:05.976Z,1.55
2022-09-18T22:37:08.852Z,0.95
2022-09-18T22:42:18.030Z,0.40
2022-09-18T22:47:20.613Z,2.15
2022-09-18T22:52:23.261Z,1.45
2022-09-18T22:57:27.343Z,1.45
2022-09-18T23:02:30.021Z,1.20
2022-09-18T23:07:32.626Z,1.38
2022-09-18T23:12:36.650Z,0.50
2022-09-18T23:17:39.303Z,0.50
2022-09-18T23:22:41.890Z,2.05
2022-09-18T23:27:45.826Z,1.50
2022-09-18T23:32:48.771Z,1.30
2022-09-18T23:37:51.360Z,1.52
2022-09-18T23:42:55.455Z,0.45
2022-09-18T23:47:58.061Z,0.68
2022-09-18T23:53:00.699Z,1.38
2022-09-18T23:58:04.819Z,1.70
